createdAt,value
2023-11-24T00:02:10.718Z,100.00
2023-11-24T00:04:38.567Z,100.00
2023-11-24T00:07:05.163Z,100.00
2023-11-24T00:09:31.944Z,100.00
2023-11-24T00:12:01.553Z,100.00
2023-11-24T00:14:28.636Z,100.00
2023-11-24T00:16:55.434Z,100.00
2023-11-24T00:19:22.143Z,100.00
2023-11-24T00:21:49.007Z,100.00
2023-11-24T00:24:15.773Z,100.00
2023-11-24T00:26:42.385Z,100.00
2023-11-24T00:29:09.202Z,100.00
2023-11-24T00:31:37.974Z,100.00
2023-11-24T00:34:04.767Z,100.00
2023-11-24T00:36:31.538Z,100.00
2023-11-24T00:38:58.233Z,100.00
2023-11-24T00:41:24.909Z,100.00
2023-11-24T00:43:51.620Z,100.00
2023-11-24T00:46:18.645Z,100.00
2023-11-24T00:48:45.821Z,100.00
2023-11-24T00:51:12.490Z,100.00
2023-11-24T00:53:39.351Z,100.00
2023-11-24T00:56:06.424Z,100.00
2023-11-24T00:58:33.081Z,100.00
2023-11-24T01:01:03.186Z,100.00
2023-11-24T01:03:29.910Z,100.00
2023-11-24T01:05:56.944Z,100.00
2023-11-24T01:08:23.626Z,100.00
2023-11-24T01:10:50.391Z,100.00
2023-11-24T01:13:17.852Z,100.00
2023-11-24T01:15:44.719Z,100.00
2023-11-24T01:18:11.509Z,100.00
2023-11-24T01:20:38.193Z,100.00
2023-11-24T01:23:07.653Z,100.00
2023-11-24T01:25:34.570Z,100.00
2023-11-24T01:28:02.493Z,100.00
2023-11-24T01:30:29.275Z,100.00
2023-11-24T01:32:56.090Z,100.00
2023-11-24T01:35:22.903Z,100.00
2023-11-24T01:37:49.619Z,100.00
2023-11-24T01:40:19.275Z,100.00
2023-11-24T01:42:45.961Z,100.00
2023-11-24T01:45:12.762Z,100.00
2023-11-24T01:47:39.836Z,100.00
2023-11-24T01:50:08.827Z,100.00
2023-11-24T01:52:36.145Z,100.00
2023-11-24T01:55:05.657Z,100.00
2023-11-24T01:57:33.195Z,100.00
2023-11-24T02:00:01.181Z,100.00
2023-11-24T02:02:30.209Z,100.00
2023-11-24T02:04:57.085Z,100.00
2023-11-24T02:07:24.318Z,100.00
2023-11-24T02:09:51.412Z,100.00
2023-11-24T02:12:18.294Z,100.00
2023-11-24T02:14:45.026Z,100.00
2023-11-24T02:17:11.894Z,100.00
2023-11-24T02:19:38.602Z,100.00
2023-11-24T02:22:07.837Z,100.00
2023-11-24T02:24:34.416Z,100.00
2023-11-24T02:27:01.026Z,100.00
2023-11-24T02:29:27.724Z,100.00
2023-11-24T02:31:55.139Z,100.00
2023-11-24T02:34:21.926Z,100.00
2023-11-24T02:36:48.820Z,100.00
2023-11-24T02:39:16.451Z,100.00
2023-11-24T02:41:43.397Z,100.00
2023-11-24T02:44:10.069Z,100.00
2023-11-24T02:46:36.723Z,100.00
2023-11-24T02:49:03.513Z,100.00
2023-11-24T02:51:30.192Z,100.00
2023-11-24T02:53:57.648Z,100.00
2023-11-24T02:56:24.380Z,100.00
2023-11-24T02:58:50.992Z,100.00
2023-11-24T03:01:17.590Z,100.00
2023-11-24T03:03:44.720Z,100.00
2023-11-24T03:06:14.094Z,100.00
2023-11-24T03:08:41.006Z,100.00
2023-11-24T03:11:08.342Z,100.00
2023-11-24T03:13:35.526Z,100.00
2023-11-24T03:16:07.755Z,100.00
2023-11-24T03:18:34.897Z,100.00
2023-11-24T03:21:01.990Z,100.00
2023-11-24T03:23:28.868Z,100.00
2023-11-24T03:25:57.242Z,100.00
2023-11-24T03:28:24.956Z,100.00
2023-11-24T03:30:51.614Z,100.00
2023-11-24T03:33:18.339Z,100.00
2023-11-24T03:35:45.023Z,100.00
2023-11-24T03:38:12.334Z,100.00
2023-11-24T03:40:38.975Z,100.00
2023-11-24T03:43:05.720Z,100.00
2023-11-24T03:45:32.470Z,100.00
2023-11-24T03:47:59.130Z,100.00
2023-11-24T03:50:25.843Z,100.00
2023-11-24T03:52:52.735Z,100.00
2023-11-24T03:55:19.399Z,100.00
2023-11-24T03:57:47.190Z,100.00
2023-11-24T04:00:14.883Z,100.00
2023-11-24T04:02:42.758Z,100.00
2023-11-24T04:05:12.052Z,100.00
2023-11-24T04:07:39.909Z,100.00
2023-11-24T04:10:08.460Z,100.00
2023-11-24T04:12:35.311Z,100.00
2023-11-24T04:15:04.746Z,100.00
2023-11-24T04:17:33.377Z,100.00
2023-11-24T04:20:00.002Z,100.00
2023-11-24T04:22:26.720Z,100.00
2023-11-24T04:24:54.206Z,100.00
2023-11-24T04:27:20.908Z,100.00
2023-11-24T04:29:47.596Z,100.00
2023-11-24T04:32:14.219Z,100.00
2023-11-24T04:34:40.897Z,100.00
2023-11-24T04:37:07.779Z,100.00
2023-11-24T04:39:34.558Z,100.00
2023-11-24T04:42:01.302Z,100.00
2023-11-24T04:44:27.976Z,100.00
2023-11-24T04:46:54.686Z,100.00
2023-11-24T04:49:23.360Z,100.00
2023-11-24T04:51:50.071Z,100.00
2023-11-24T04:54:16.805Z,100.00
2023-11-24T04:56:43.497Z,100.00
2023-11-24T04:59:10.310Z,100.00
2023-11-24T05:01:37.147Z,100.00
2023-11-24T05:04:04.297Z,100.00
2023-11-24T05:06:31.082Z,100.00
2023-11-24T05:08:57.790Z,100.00
2023-11-24T05:11:24.394Z,100.00
2023-11-24T05:13:51.007Z,100.00
2023-11-24T05:16:18.065Z,100.00
2023-11-24T05:18:44.963Z,100.00
2023-11-24T05:21:11.530Z,100.00
2023-11-24T05:23:38.247Z,100.00
2023-11-24T05:26:05.102Z,100.00
2023-11-24T05:28:31.896Z,100.00
2023-11-24T05:30:59.394Z,100.00
2023-11-24T05:33:26.094Z,100.00
2023-11-24T05:35:52.768Z,100.00
2023-11-24T05:38:19.409Z,100.00
2023-11-24T05:40:46.813Z,100.00
2023-11-24T05:43:13.501Z,100.00
2023-11-24T05:45:40.189Z,100.00
2023-11-24T05:48:07.378Z,100.00
2023-11-24T05:50:34.425Z,100.00
2023-11-24T05:53:01.180Z,100.00
2023-11-24T05:55:27.793Z,100.00
2023-11-24T05:57:54.473Z,100.00
2023-11-24T06:00:21.111Z,100.00
2023-11-24T06:02:47.930Z,100.00
2023-11-24T06:05:17.041Z,100.00
2023-11-24T06:07:44.010Z,100.00
2023-11-24T06:10:11.079Z,100.00
2023-11-24T06:12:38.286Z,100.00
2023-11-24T06:15:05.964Z,100.00
2023-11-24T06:17:33.493Z,100.00
2023-11-24T06:20:00.338Z,100.00
2023-11-24T06:22:27.042Z,100.00
2023-11-24T06:24:54.952Z,100.00
2023-11-24T06:27:21.810Z,100.00
2023-11-24T06:29:49.027Z,100.00
2023-11-24T06:32:15.714Z,100.00
2023-11-24T06:34:43.003Z,100.00
2023-11-24T06:37:09.691Z,100.00
2023-11-24T06:39:36.646Z,100.00
2023-11-24T06:42:05.564Z,100.00
2023-11-24T06:44:32.609Z,100.00
2023-11-24T06:47:01.282Z,100.00
2023-11-24T06:49:30.754Z,100.00
2023-11-24T06:51:57.914Z,100.00
2023-11-24T06:54:24.697Z,100.00
2023-11-24T06:56:51.406Z,100.00
2023-11-24T06:59:18.663Z,100.00
2023-11-24T07:01:45.379Z,100.00
2023-11-24T07:04:12.304Z,100.00
2023-11-24T07:06:39.186Z,100.00
2023-11-24T07:09:06.313Z,100.00
2023-11-24T07:11:33.056Z,100.00
2023-11-24T07:13:59.766Z,100.00
2023-11-24T07:16:27.029Z,100.00
2023-11-24T07:18:53.934Z,100.00
2023-11-24T07:21:20.795Z,100.00
2023-11-24T07:23:47.402Z,100.00
2023-11-24T07:26:18.178Z,92.79
2023-11-24T07:28:45.292Z,98.94
2023-11-24T07:31:16.004Z,92.84
2023-11-24T07:33:42.736Z,88.29
2023-11-24T07:36:10.283Z,82.50
2023-11-24T07:38:37.625Z,81.16
2023-11-24T07:41:05.867Z,76.33
2023-11-24T07:43:35.513Z,73.47
2023-11-24T07:46:07.637Z,71.32
2023-11-24T07:48:35.261Z,69.73
2023-11-24T07:51:02.755Z,66.89
2023-11-24T07:53:29.522Z,76.16
2023-11-24T07:55:56.332Z,78.92
2023-11-24T07:58:23.320Z,70.50
2023-11-24T08:00:50.135Z,67.99
2023-11-24T08:03:18.336Z,79.17
2023-11-24T08:05:45.410Z,69.66
2023-11-24T08:08:12.068Z,61.21
2023-11-24T08:10:38.886Z,59.29
2023-11-24T08:13:05.672Z,54.77
2023-11-24T08:15:32.385Z,59.44
2023-11-24T08:17:59.121Z,61.34
2023-11-24T08:20:25.862Z,58.23
2023-11-24T08:22:52.515Z,54.34
2023-11-24T08:25:19.746Z,48.45
2023-11-24T08:27:48.106Z,46.08
2023-11-24T08:30:15.177Z,43.63
2023-11-24T08:32:45.557Z,45.51
2023-11-24T08:35:13.832Z,44.88
2023-11-24T08:37:40.599Z,45.13
2023-11-24T08:40:12.219Z,45.09
2023-11-24T08:42:39.817Z,44.06
2023-11-24T08:45:07.834Z,42.90
2023-11-24T08:47:34.570Z,42.40
2023-11-24T08:50:01.398Z,40.22
2023-11-24T08:52:28.017Z,39.91
2023-11-24T08:54:54.683Z,38.04
2023-11-24T08:57:21.287Z,39.55
2023-11-24T08:59:47.935Z,39.63
2023-11-24T09:02:14.728Z,38.72
2023-11-24T09:04:41.466Z,37.84
2023-11-24T09:07:10.005Z,36.78
2023-11-24T09:09:37.758Z,35.39
2023-11-24T09:12:06.702Z,35.43
2023-11-24T09:14:39.404Z,34.78
2023-11-24T09:17:06.125Z,35.81
2023-11-24T09:19:35.192Z,35.45
2023-11-24T09:22:04.869Z,33.70
2023-11-24T09:24:31.554Z,35.92
2023-11-24T09:26:58.195Z,40.32
2023-11-24T09:29:24.837Z,41.91
2023-11-24T09:31:52.026Z,42.01
2023-11-24T09:34:18.763Z,43.44
2023-11-24T09:36:47.366Z,48.46
2023-11-24T09:39:21.910Z,44.63
2023-11-24T09:41:52.364Z,48.04
2023-11-24T09:44:19.745Z,45.91
2023-11-24T09:46:51.858Z,42.94
2023-11-24T09:49:23.985Z,41.52
2023-11-24T09:51:50.694Z,40.64
2023-11-24T09:54:19.122Z,39.68
2023-11-24T09:56:45.963Z,38.84
2023-11-24T09:59:14.631Z,38.95
2023-11-24T10:01:41.355Z,37.27
2023-11-24T10:04:08.089Z,36.66
2023-11-24T10:06:38.348Z,37.18
2023-11-24T10:09:06.749Z,37.70
2023-11-24T10:11:36.768Z,38.11
2023-11-24T10:14:07.133Z,38.15
2023-11-24T10:16:34.201Z,37.45
2023-11-24T10:19:01.794Z,38.58
2023-11-24T10:21:33.187Z,37.13
2023-11-24T10:24:02.173Z,37.90
2023-11-24T10:26:29.208Z,37.13
2023-11-24T10:28:56.785Z,37.32
2023-11-24T10:31:23.739Z,39.15
2023-11-24T10:33:50.924Z,37.33
2023-11-24T10:36:19.291Z,37.59
2023-11-24T10:38:47.951Z,38.02
2023-11-24T10:41:24.407Z,37.78
2023-11-24T10:43:52.479Z,37.83
2023-11-24T10:46:21.971Z,38.27
2023-11-24T10:49:24.562Z,38.00
2023-11-24T10:52:00.630Z,37.67
2023-11-24T10:54:39.900Z,37.82
2023-11-24T10:57:07.585Z,38.47
2023-11-24T10:59:37.321Z,38.39
2023-11-24T11:02:08.153Z,39.20
2023-11-24T11:04:37.087Z,38.92
2023-11-24T11:07:17.128Z,39.15
2023-11-24T11:09:52.501Z,39.63
2023-11-24T11:12:32.201Z,39.49
2023-11-24T11:14:59.960Z,39.33
2023-11-24T11:17:27.663Z,39.84
2023-11-24T11:20:08.399Z,40.49
2023-11-24T11:22:38.003Z,41.59
2023-11-24T11:25:14.418Z,42.49
2023-11-24T11:27:46.532Z,42.63
2023-11-24T11:30:20.187Z,43.13
2023-11-24T11:32:47.891Z,43.08
2023-11-24T11:35:15.258Z,43.45
2023-11-24T11:37:42.636Z,43.57
2023-11-24T11:40:13.731Z,43.90
2023-11-24T11:42:53.555Z,43.90
2023-11-24T11:45:25.830Z,42.16
2023-11-24T11:47:53.141Z,40.40
2023-11-24T11:50:25.556Z,40.50
2023-11-24T11:52:55.753Z,40.34
2023-11-24T11:55:25.180Z,40.68
2023-11-24T11:57:57.012Z,41.09
2023-11-24T12:00:31.023Z,41.53
2023-11-24T12:02:59.512Z,42.15
2023-11-24T12:05:29.650Z,43.06
2023-11-24T12:07:59.294Z,39.36
2023-11-24T12:10:30.574Z,36.93
2023-11-24T12:12:59.750Z,39.13
2023-11-24T12:15:26.507Z,40.18
2023-11-24T12:17:58.208Z,40.88
2023-11-24T12:20:25.663Z,41.32
2023-11-24T12:22:53.554Z,40.95
2023-11-24T12:25:22.396Z,40.90
2023-11-24T12:27:49.438Z,39.34
2023-11-24T12:30:16.302Z,39.78
2023-11-24T12:32:44.129Z,38.96
2023-11-24T12:35:10.897Z,38.94
2023-11-24T12:37:42.061Z,38.76
2023-11-24T12:40:10.735Z,38.46
2023-11-24T12:42:38.965Z,37.64
2023-11-24T12:45:09.691Z,38.41
2023-11-24T12:50:11.767Z,38.71
2023-11-24T12:52:40.391Z,39.17
2023-11-24T12:55:10.059Z,39.62
2023-11-24T12:57:37.732Z,39.16
2023-11-24T13:00:14.716Z,39.36
2023-11-24T13:02:42.607Z,39.05
2023-11-24T13:05:10.616Z,38.25
2023-11-24T13:07:38.897Z,38.05
2023-11-24T13:10:10.823Z,38.80
2023-11-24T13:12:41.728Z,38.11
2023-11-24T13:15:10.450Z,36.86
2023-11-24T13:17:37.558Z,37.75
2023-11-24T13:20:05.056Z,37.22
2023-11-24T13:22:34.989Z,37.95
2023-11-24T13:25:02.306Z,38.67
2023-11-24T13:27:30.285Z,39.96
2023-11-24T13:29:57.925Z,39.21
2023-11-24T13:32:24.674Z,39.07
2023-11-24T13:34:51.495Z,39.37
2023-11-24T13:37:19.028Z,39.43
2023-11-24T13:39:46.806Z,39.96
2023-11-24T13:42:17.904Z,39.71
2023-11-24T13:44:46.036Z,39.23
2023-11-24T13:47:14.119Z,39.76
2023-11-24T13:49:41.825Z,39.25
2023-11-24T13:52:11.007Z,38.87
2023-11-24T13:54:38.986Z,39.22
2023-11-24T13:57:05.616Z,39.22
2023-11-24T13:59:32.890Z,39.86
2023-11-24T14:01:59.921Z,39.55
2023-11-24T14:04:27.525Z,39.80
2023-11-24T14:06:54.713Z,40.15
2023-11-24T14:09:21.952Z,40.06
2023-11-24T14:11:50.589Z,40.45
2023-11-24T14:14:18.190Z,40.27
2023-11-24T14:16:49.516Z,40.11
2023-11-24T14:19:16.363Z,40.24
2023-11-24T14:21:47.902Z,40.35
2023-11-24T14:24:15.121Z,40.63
2023-11-24T14:26:45.755Z,40.64
2023-11-24T14:29:13.542Z,41.00
2023-11-24T14:31:41.139Z,41.56
2023-11-24T14:34:08.030Z,42.29
2023-11-24T14:36:38.369Z,42.36
2023-11-24T14:39:06.104Z,42.20
2023-11-24T14:41:32.637Z,42.28
2023-11-24T14:44:00.057Z,42.46
2023-11-24T14:46:30.569Z,42.30
2023-11-24T14:48:58.047Z,42.95
2023-11-24T14:51:27.676Z,43.28
2023-11-24T14:53:54.372Z,43.94
2023-11-24T14:56:21.004Z,44.68
2023-11-24T14:58:47.646Z,44.90
2023-11-24T15:01:20.677Z,45.09
2023-11-24T15:03:49.398Z,45.83
2023-11-24T15:06:16.800Z,45.57
2023-11-24T15:08:47.712Z,45.93
2023-11-24T15:11:16.585Z,46.01
2023-11-24T15:13:44.204Z,46.29
2023-11-24T15:16:20.339Z,46.80
2023-11-24T15:18:50.211Z,46.96
2023-11-24T15:21:29.745Z,47.12
2023-11-24T15:23:56.483Z,47.28
2023-11-24T15:26:26.183Z,48.05
2023-11-24T15:28:56.542Z,49.23
2023-11-24T15:31:27.834Z,49.46
2023-11-24T15:33:55.204Z,50.42
2023-11-24T15:36:28.286Z,50.85
2023-11-24T15:38:59.745Z,51.63
2023-11-24T15:41:38.501Z,53.75
2023-11-24T15:44:10.272Z,52.04
2023-11-24T15:46:39.450Z,53.74
2023-11-24T15:49:16.047Z,55.10
2023-11-24T15:51:46.931Z,55.22
2023-11-24T15:54:16.326Z,56.43
2023-11-24T15:56:44.605Z,55.25
2023-11-24T15:59:13.641Z,57.46
2023-11-24T16:01:43.883Z,58.82
2023-11-24T16:04:12.220Z,58.85
2023-11-24T16:06:42.010Z,60.39
2023-11-24T16:09:13.307Z,62.37
2023-11-24T16:11:46.823Z,62.41
2023-11-24T16:14:14.169Z,63.93
2023-11-24T16:16:46.878Z,65.15
2023-11-24T16:19:15.108Z,66.78
2023-11-24T16:21:43.065Z,64.17
2023-11-24T16:24:10.019Z,66.22
2023-11-24T16:26:36.625Z,68.59
2023-11-24T16:29:04.622Z,69.56
2023-11-24T16:31:34.813Z,70.59
2023-11-24T16:34:02.608Z,71.17
2023-11-24T16:36:29.589Z,71.20
2023-11-24T16:38:56.482Z,73.52
2023-11-24T16:41:23.111Z,75.39
2023-11-24T16:43:49.763Z,75.42
2023-11-24T16:46:16.410Z,75.66
2023-11-24T16:48:43.628Z,75.22
2023-11-24T16:51:10.787Z,75.34
2023-11-24T16:53:37.546Z,77.76
2023-11-24T16:56:04.449Z,74.36
2023-11-24T16:58:31.070Z,72.18
2023-11-24T17:00:57.682Z,70.65
2023-11-24T17:03:24.456Z,71.48
2023-11-24T17:05:51.228Z,73.02
2023-11-24T17:08:17.969Z,73.10
2023-11-24T17:10:46.313Z,73.45
2023-11-24T17:13:13.140Z,73.29
2023-11-24T17:15:39.971Z,74.88
2023-11-24T17:18:13.166Z,75.83
2023-11-24T17:20:40.612Z,71.85
2023-11-24T17:23:07.341Z,73.22
2023-11-24T17:25:37.115Z,71.59
2023-11-24T17:28:04.623Z,74.53
2023-11-24T17:30:31.275Z,74.62
2023-11-24T17:32:58.351Z,75.28
2023-11-24T17:35:25.582Z,77.99
2023-11-24T17:37:52.420Z,79.91
2023-11-24T17:40:22.782Z,80.70
2023-11-24T17:42:50.099Z,80.21
2023-11-24T17:45:17.185Z,80.48
2023-11-24T17:47:46.698Z,81.78
2023-11-24T17:50:15.122Z,83.06
2023-11-24T17:52:43.606Z,70.23
2023-11-24T17:55:10.818Z,77.23
2023-11-24T17:57:37.966Z,76.18
2023-11-24T18:00:14.406Z,75.99
2023-11-24T18:02:41.442Z,75.87
2023-11-24T18:05:08.385Z,68.15
2023-11-24T18:07:35.639Z,73.84
2023-11-24T18:10:03.947Z,67.31
2023-11-24T18:12:31.672Z,72.31
2023-11-24T18:14:58.386Z,62.28
2023-11-24T18:17:26.201Z,66.00
2023-11-24T18:19:55.905Z,67.90
2023-11-24T18:22:22.684Z,67.31
2023-11-24T18:24:49.455Z,65.67
2023-11-24T18:27:16.134Z,66.40
2023-11-24T18:29:43.072Z,51.13
2023-11-24T18:32:15.699Z,57.19
2023-11-24T18:34:42.340Z,48.61
2023-11-24T18:37:08.996Z,59.20
2023-11-24T18:39:35.865Z,52.62
2023-11-24T18:42:03.583Z,54.52
2023-11-24T18:44:30.338Z,52.41
2023-11-24T18:46:57.028Z,47.92
2023-11-24T18:49:25.045Z,53.26
2023-11-24T18:51:51.766Z,48.93
2023-11-24T18:54:18.609Z,49.09
2023-11-24T18:56:45.348Z,53.28
2023-11-24T18:59:13.802Z,47.27
2023-11-24T19:01:40.578Z,51.37
2023-11-24T19:04:08.388Z,38.69
2023-11-24T19:06:35.189Z,37.11
2023-11-24T19:09:01.976Z,29.01
2023-11-24T19:11:28.830Z,26.34
2023-11-24T19:13:56.073Z,25.86
2023-11-24T19:16:22.836Z,25.25
2023-11-24T19:18:49.599Z,24.68
2023-11-24T19:21:16.257Z,25.06
2023-11-24T19:23:42.969Z,24.91
2023-11-24T19:26:15.450Z,25.01
2023-11-24T19:28:55.854Z,24.92
2023-11-24T19:31:29.755Z,24.23
2023-11-24T19:33:57.652Z,23.86
2023-11-24T19:36:30.287Z,23.80
2023-11-24T19:38:57.043Z,24.22
2023-11-24T19:41:23.656Z,24.14
2023-11-24T19:43:51.021Z,24.45
2023-11-24T19:46:18.071Z,24.38
2023-11-24T19:48:44.808Z,24.81
2023-11-24T19:51:11.436Z,24.02
2023-11-24T19:53:38.056Z,24.44
2023-11-24T19:56:05.136Z,24.64
2023-11-24T19:58:31.875Z,24.46
2023-11-24T20:01:00.075Z,24.58
2023-11-24T20:03:26.889Z,24.95
2023-11-24T20:05:53.885Z,25.06
2023-11-24T20:08:20.760Z,24.74
2023-11-24T20:10:47.521Z,25.06
2023-11-24T20:13:14.373Z,25.27
2023-11-24T20:15:41.962Z,24.74
2023-11-24T20:18:09.925Z,24.65
2023-11-24T20:20:39.825Z,24.91
2023-11-24T20:23:09.784Z,24.88
2023-11-24T20:25:36.501Z,25.85
2023-11-24T20:28:03.324Z,25.99
2023-11-24T20:30:30.199Z,24.74
2023-11-24T20:32:57.462Z,25.72
2023-11-24T20:35:24.687Z,25.52
2023-11-24T20:37:52.568Z,25.60
2023-11-24T20:40:20.769Z,25.70
2023-11-24T20:42:48.539Z,26.16
2023-11-24T20:45:15.736Z,26.06
2023-11-24T20:47:43.102Z,26.32
2023-11-24T20:50:11.305Z,26.63
2023-11-24T20:52:38.058Z,24.53
2023-11-24T20:55:05.282Z,24.69
2023-11-24T20:57:31.956Z,25.42
2023-11-24T20:59:58.603Z,25.62
2023-11-24T21:02:25.405Z,26.97
2023-11-24T21:04:52.136Z,24.82
2023-11-24T21:07:20.213Z,26.60
2023-11-24T21:09:47.124Z,26.28
2023-11-24T21:12:13.816Z,25.62
2023-11-24T21:14:40.432Z,24.46
2023-11-24T21:17:07.418Z,22.49
2023-11-24T21:19:35.177Z,21.54
2023-11-24T21:22:01.963Z,21.09
2023-11-24T21:24:29.354Z,20.40
2023-11-24T21:26:55.974Z,20.22
2023-11-24T21:29:22.619Z,19.88
2023-11-24T21:31:49.916Z,20.49
2023-11-24T21:34:16.603Z,19.41
2023-11-24T21:36:43.312Z,18.64
2023-11-24T21:39:09.933Z,18.28
2023-11-24T21:41:37.909Z,18.41
2023-11-24T21:44:05.092Z,19.51
2023-11-24T21:46:31.793Z,20.34
2023-11-24T21:48:58.475Z,22.14
2023-11-24T21:51:25.202Z,20.88
2023-11-24T21:53:51.792Z,19.65
2023-11-24T21:56:26.238Z,20.02
2023-11-24T21:58:56.967Z,20.99
2023-11-24T22:01:27.373Z,19.65
2023-11-24T22:03:56.792Z,18.80
2023-11-24T22:06:25.870Z,19.12
2023-11-24T22:08:52.733Z,19.52
2023-11-24T22:11:19.405Z,19.34
2023-11-24T22:13:46.110Z,18.38
2023-11-24T22:16:12.866Z,17.98
2023-11-24T22:18:39.563Z,17.55
2023-11-24T22:21:08.513Z,17.99
2023-11-24T22:23:35.161Z,21.87
2023-11-24T22:26:02.154Z,18.69
2023-11-24T22:28:28.908Z,21.00
2023-11-24T22:30:55.759Z,23.00
2023-11-24T22:33:22.383Z,23.59
2023-11-24T22:35:48.999Z,25.05
2023-11-24T22:38:15.566Z,23.92
2023-11-24T22:40:43.844Z,21.68
2023-11-24T22:43:10.478Z,24.14
2023-11-24T22:45:37.936Z,26.55
2023-11-24T22:48:04.931Z,24.33
2023-11-24T22:50:31.601Z,23.05
2023-11-24T22:52:58.164Z,24.06
2023-11-24T22:55:24.790Z,23.23
2023-11-24T22:57:51.552Z,22.58
2023-11-24T23:00:36.175Z,23.29
2023-11-24T23:03:06.315Z,24.08
2023-11-24T23:05:33.015Z,24.91
2023-11-24T23:08:00.417Z,26.32
2023-11-24T23:10:28.435Z,26.75
2023-11-24T23:12:55.191Z,27.16
2023-11-24T23:15:21.831Z,27.20
2023-11-24T23:17:48.654Z,26.55
2023-11-24T23:20:15.599Z,25.34
2023-11-24T23:22:43.769Z,24.32
2023-11-24T23:25:14.107Z,25.32
2023-11-24T23:27:40.968Z,25.07
2023-11-24T23:30:09.439Z,24.70
2023-11-24T23:32:36.357Z,24.19
2023-11-24T23:35:03.052Z,24.19
2023-11-24T23:37:29.701Z,23.68
2023-11-24T23:39:56.444Z,24.06
2023-11-24T23:42:24.244Z,23.74
2023-11-24T23:44:51.086Z,23.19
2023-11-24T23:47:18.270Z,24.94
2023-11-24T23:49:44.923Z,24.68
2023-11-24T23:52:12.240Z,25.47
2023-11-24T23:54:40.506Z,27.31
2023-11-24T23:57:07.141Z,26.40
2023-11-24T23:59:33.728Z,25.69
